createdAt,value
2023-04-02T00:01:53.971Z,100.00
2023-04-02T00:04:24.344Z,100.00
2023-04-02T00:06:55.704Z,100.00
2023-04-02T00:09:39.013Z,100.00
2023-04-02T00:12:17.890Z,100.00
2023-04-02T00:14:54.098Z,100.00
2023-04-02T00:17:25.892Z,100.00
2023-04-02T00:19:59.324Z,100.00
2023-04-02T00:22:31.734Z,100.00
2023-04-02T00:25:03.940Z,100.00
2023-04-02T00:27:33.093Z,100.00
2023-04-02T00:30:04.374Z,100.00
2023-04-02T00:32:36.234Z,100.00
2023-04-02T00:35:06.145Z,100.00
2023-04-02T00:37:39.280Z,100.00
2023-04-02T00:40:16.853Z,100.00
2023-04-02T00:42:46.675Z,100.00
2023-04-02T00:45:23.840Z,100.00
2023-04-02T00:47:52.625Z,100.00
2023-04-02T00:50:29.060Z,100.00
2023-04-02T00:53:00.040Z,100.00
2023-04-02T00:55:36.860Z,100.00
2023-04-02T00:58:06.318Z,100.00
2023-04-02T01:00:38.159Z,100.00
2023-04-02T01:03:30.120Z,100.00
2023-04-02T01:06:04.829Z,100.00
2023-04-02T01:08:49.359Z,100.00
2023-04-02T01:11:30.949Z,100.00
2023-04-02T01:14:08.380Z,100.00
2023-04-02T01:16:50.503Z,100.00
2023-04-02T01:19:49.213Z,100.00
2023-04-02T01:22:24.389Z,100.00
2023-04-02T01:24:52.780Z,100.00
2023-04-02T01:27:26.241Z,100.00
2023-04-02T01:29:58.023Z,100.00
2023-04-02T01:32:29.860Z,100.00
2023-04-02T01:34:59.481Z,100.00
2023-04-02T01:37:39.282Z,100.00
2023-04-02T01:40:17.377Z,100.00
2023-04-02T01:42:53.450Z,100.00
2023-04-02T01:45:24.781Z,100.00
2023-04-02T01:47:53.828Z,100.00
2023-04-02T01:50:31.702Z,100.00
2023-04-02T01:53:04.646Z,100.00
2023-04-02T01:55:40.450Z,100.00
2023-04-02T01:58:12.052Z,100.00
2023-04-02T02:00:47.354Z,100.00
2023-04-02T02:03:17.523Z,100.00
2023-04-02T02:05:46.505Z,100.00
2023-04-02T02:08:32.839Z,100.00
2023-04-02T02:11:01.668Z,100.00
2023-04-02T02:13:30.008Z,100.00
2023-04-02T02:16:01.090Z,100.00
2023-04-02T02:18:30.334Z,100.00
2023-04-02T02:21:01.043Z,100.00
2023-04-02T02:23:31.083Z,100.00
2023-04-02T02:26:00.120Z,100.00
2023-04-02T02:28:30.863Z,100.00
2023-04-02T02:31:04.233Z,100.00
2023-04-02T02:33:38.945Z,100.00
2023-04-02T02:36:17.287Z,100.00
2023-04-02T02:38:54.290Z,100.00
2023-04-02T02:41:43.847Z,100.00
2023-04-02T02:44:19.150Z,100.00
2023-04-02T02:46:53.392Z,100.00
2023-04-02T02:49:28.517Z,100.00
2023-04-02T02:52:02.463Z,100.00
2023-04-02T02:54:45.272Z,100.00
2023-04-02T02:57:19.536Z,100.00
2023-04-02T02:59:49.762Z,100.00
2023-04-02T03:02:20.883Z,100.00
2023-04-02T03:04:53.207Z,100.00
2023-04-02T03:07:26.757Z,100.00
2023-04-02T03:10:06.180Z,100.00
2023-04-02T03:12:46.729Z,100.00
2023-04-02T03:15:22.847Z,100.00
2023-04-02T03:17:59.150Z,100.00
2023-04-02T03:20:36.155Z,100.00
2023-04-02T03:23:14.016Z,100.00
2023-04-02T03:25:45.857Z,100.00
2023-04-02T03:28:18.287Z,100.00
2023-04-02T03:30:51.886Z,100.00
2023-04-02T03:33:27.363Z,100.00
2023-04-02T03:36:01.505Z,100.00
2023-04-02T03:38:33.956Z,100.00
2023-04-02T03:41:07.022Z,100.00
2023-04-02T03:43:41.862Z,100.00
2023-04-02T03:46:23.858Z,100.00
2023-04-02T03:48:57.207Z,100.00
2023-04-02T03:51:32.114Z,100.00
2023-04-02T03:54:03.688Z,100.00
2023-04-02T03:56:39.994Z,100.00
2023-04-02T03:59:18.283Z,100.00
2023-04-02T04:01:54.811Z,100.00
2023-04-02T04:04:28.997Z,100.00
2023-04-02T04:06:59.966Z,100.00
2023-04-02T04:09:33.103Z,100.00
2023-04-02T04:12:10.890Z,100.00
2023-04-02T04:14:45.366Z,100.00
2023-04-02T04:17:24.847Z,100.00
2023-04-02T04:20:08.277Z,100.00
2023-04-02T04:22:37.994Z,100.00
2023-04-02T04:25:30.011Z,100.00
2023-04-02T04:28:11.761Z,100.00
2023-04-02T04:30:51.184Z,100.00
2023-04-02T04:33:25.823Z,100.00
2023-04-02T04:36:02.268Z,100.00
2023-04-02T04:38:39.298Z,100.00
2023-04-02T04:41:16.504Z,100.00
2023-04-02T04:43:51.408Z,100.00
2023-04-02T04:46:24.196Z,100.00
2023-04-02T04:48:59.257Z,100.00
2023-04-02T04:51:35.676Z,100.00
2023-04-02T04:54:04.261Z,100.00
2023-04-02T04:56:36.305Z,100.00
2023-04-02T04:59:19.197Z,100.00
2023-04-02T05:01:53.727Z,100.00
2023-04-02T05:04:30.299Z,100.00
2023-04-02T05:07:06.407Z,100.00
2023-04-02T05:09:40.316Z,100.00
2023-04-02T05:12:19.104Z,100.00
2023-04-02T05:14:55.134Z,100.00
2023-04-02T05:17:30.815Z,100.00
2023-04-02T05:20:08.320Z,100.00
2023-04-02T05:22:47.422Z,100.00
2023-04-02T05:25:23.608Z,100.00
2023-04-02T05:27:58.914Z,100.00
2023-04-02T05:30:52.911Z,100.00
2023-04-02T05:33:25.939Z,100.00
2023-04-02T05:36:00.711Z,100.00
2023-04-02T05:38:34.749Z,100.00
2023-04-02T05:41:06.280Z,100.00
2023-04-02T05:43:38.608Z,100.00
2023-04-02T05:46:18.314Z,100.00
2023-04-02T05:48:53.141Z,100.00
2023-04-02T05:51:25.829Z,100.00
2023-04-02T05:53:59.557Z,100.00
2023-04-02T05:56:34.061Z,100.00
2023-04-02T05:59:12.398Z,100.00
2023-04-02T06:01:45.731Z,100.00
2023-04-02T06:04:31.571Z,100.00
2023-04-02T06:07:06.419Z,100.00
2023-04-02T06:09:45.261Z,100.00
2023-04-02T06:12:29.862Z,100.00
2023-04-02T06:14:59.662Z,100.00
2023-04-02T06:17:31.609Z,100.00
2023-04-02T06:20:05.039Z,100.00
2023-04-02T06:22:37.669Z,100.00
2023-04-02T06:25:19.539Z,100.00
2023-04-02T06:27:51.781Z,100.00
2023-04-02T06:30:26.057Z,100.00
2023-04-02T06:32:54.932Z,100.00
2023-04-02T06:35:23.778Z,100.00
2023-04-02T06:38:05.810Z,100.00
2023-04-02T06:40:43.412Z,100.00
2023-04-02T06:43:52.129Z,100.00
2023-04-02T06:46:33.952Z,100.00
2023-04-02T06:49:18.996Z,100.00
2023-04-02T06:51:51.999Z,100.00
2023-04-02T06:54:21.281Z,100.00
2023-04-02T06:56:57.663Z,100.00
2023-04-02T06:59:30.652Z,100.00
2023-04-02T07:02:04.579Z,100.00
2023-04-02T07:04:33.424Z,100.00
2023-04-02T07:07:01.864Z,100.00
2023-04-02T07:09:33.833Z,100.00
2023-04-02T07:12:12.924Z,100.00
2023-04-02T07:14:41.907Z,100.00
2023-04-02T07:17:17.921Z,100.00
2023-04-02T07:19:49.813Z,100.00
2023-04-02T07:22:21.769Z,100.00
2023-04-02T07:24:54.508Z,100.00
2023-04-02T07:27:24.629Z,100.00
2023-04-02T07:29:53.265Z,100.00
2023-04-02T07:32:21.784Z,100.00
2023-04-02T07:34:50.207Z,100.00
2023-04-02T07:37:18.532Z,100.00
2023-04-02T07:39:47.206Z,100.00
2023-04-02T07:42:15.787Z,100.00
2023-04-02T07:44:45.552Z,100.00
2023-04-02T07:47:13.984Z,100.00
2023-04-02T07:49:42.322Z,100.00
2023-04-02T07:52:10.715Z,100.00
2023-04-02T07:54:39.987Z,100.00
2023-04-02T07:57:08.433Z,100.00
2023-04-02T07:59:36.816Z,100.00
2023-04-02T08:02:06.582Z,98.54
2023-04-02T08:04:35.028Z,98.69
2023-04-02T08:07:03.941Z,99.59
2023-04-02T08:09:32.255Z,95.14
2023-04-02T08:12:00.722Z,94.42
2023-04-02T08:14:29.258Z,91.43
2023-04-02T08:16:57.703Z,92.50
2023-04-02T08:19:28.366Z,91.61
2023-04-02T08:21:56.923Z,91.20
2023-04-02T08:24:25.352Z,89.43
2023-04-02T08:26:54.413Z,92.83
2023-04-02T08:29:23.065Z,92.96
2023-04-02T08:31:51.436Z,92.58
2023-04-02T08:34:19.911Z,94.37
2023-04-02T08:36:49.721Z,91.54
2023-04-02T08:39:18.176Z,89.22
2023-04-02T08:41:53.114Z,86.39
2023-04-02T08:44:38.251Z,84.40
2023-04-02T08:47:08.741Z,84.13
2023-04-02T08:49:41.561Z,82.86
2023-04-02T08:52:22.902Z,74.94
2023-04-02T08:54:53.640Z,71.39
2023-04-02T08:57:32.139Z,70.94
2023-04-02T09:00:11.087Z,70.21
2023-04-02T09:02:43.462Z,68.86
2023-04-02T09:05:20.044Z,64.79
2023-04-02T09:07:52.537Z,61.48
2023-04-02T09:10:22.406Z,59.71
2023-04-02T09:12:54.122Z,53.01
2023-04-02T09:15:30.953Z,51.38
2023-04-02T09:18:05.527Z,46.46
2023-04-02T09:20:33.988Z,46.15
2023-04-02T09:23:03.821Z,46.05
2023-04-02T09:25:33.587Z,50.42
2023-04-02T09:28:04.295Z,51.41
2023-04-02T09:30:44.882Z,49.62
2023-04-02T09:33:13.242Z,49.87
2023-04-02T09:35:57.880Z,53.15
2023-04-02T09:38:31.664Z,52.57
2023-04-02T09:41:02.500Z,52.26
2023-04-02T09:43:32.284Z,46.12
2023-04-02T09:46:03.328Z,46.02
2023-04-02T09:48:35.504Z,46.91
2023-04-02T09:51:12.926Z,49.20
2023-04-02T09:53:43.904Z,48.27
2023-04-02T09:56:18.166Z,43.66
2023-04-02T09:59:02.760Z,44.35
2023-04-02T10:01:34.816Z,44.91
2023-04-02T10:04:05.265Z,42.38
2023-04-02T10:06:35.397Z,39.89
2023-04-02T10:09:30.614Z,41.45
2023-04-02T10:12:01.596Z,41.18
2023-04-02T10:14:34.697Z,41.32
2023-04-02T10:17:09.736Z,39.25
2023-04-02T10:19:42.224Z,37.76
2023-04-02T10:22:15.046Z,37.89
2023-04-02T10:24:45.467Z,37.34
2023-04-02T10:27:27.882Z,35.08
2023-04-02T10:30:10.708Z,33.10
2023-04-02T10:32:46.091Z,33.09
2023-04-02T10:35:22.739Z,36.04
2023-04-02T10:38:20.653Z,34.92
2023-04-02T10:40:59.401Z,30.46
2023-04-02T10:43:50.934Z,28.16
2023-04-02T10:46:25.636Z,27.72
2023-04-02T10:49:03.805Z,26.42
2023-04-02T10:51:40.602Z,27.48
2023-04-02T10:54:23.850Z,29.23
2023-04-02T10:56:55.178Z,31.33
2023-04-02T10:59:27.446Z,35.46
2023-04-02T11:01:58.476Z,35.59
2023-04-02T11:04:31.219Z,35.85
2023-04-02T11:07:13.279Z,35.77
2023-04-02T11:09:45.540Z,37.36
2023-04-02T11:12:24.645Z,34.32
2023-04-02T11:14:55.525Z,36.98
2023-04-02T11:17:25.552Z,36.86
2023-04-02T11:19:54.150Z,38.79
2023-04-02T11:22:24.078Z,38.64
2023-04-02T11:24:53.677Z,39.81
2023-04-02T11:27:29.466Z,38.45
2023-04-02T11:30:06.813Z,39.94
2023-04-02T11:32:39.550Z,40.88
2023-04-02T11:35:37.621Z,41.06
2023-04-02T11:38:52.209Z,41.97
2023-04-02T11:41:59.582Z,43.03
2023-04-02T11:44:29.454Z,43.37
2023-04-02T11:47:19.735Z,44.90
2023-04-02T11:50:07.636Z,43.02
2023-04-02T11:52:51.253Z,40.68
2023-04-02T11:55:25.358Z,40.30
2023-04-02T11:58:32.678Z,41.58
2023-04-02T12:01:38.609Z,37.03
2023-04-02T12:04:33.986Z,39.06
2023-04-02T12:07:26.804Z,39.16
2023-04-02T12:09:58.605Z,41.44
2023-04-02T12:12:30.446Z,42.81
2023-04-02T12:14:59.934Z,44.27
2023-04-02T12:17:34.345Z,43.23
2023-04-02T12:20:09.919Z,44.11
2023-04-02T12:22:41.665Z,44.70
2023-04-02T12:25:27.873Z,44.41
2023-04-02T12:28:18.091Z,45.33
2023-04-02T12:30:48.206Z,45.43
2023-04-02T12:33:30.659Z,43.90
2023-04-02T12:36:01.057Z,44.12
2023-04-02T12:38:31.337Z,41.66
2023-04-02T12:41:01.566Z,40.38
2023-04-02T12:43:32.775Z,40.02
2023-04-02T12:46:04.002Z,41.06
2023-04-02T12:48:34.902Z,37.77
2023-04-02T12:51:05.420Z,39.04
2023-04-02T12:53:37.404Z,38.60
2023-04-02T12:56:08.332Z,39.99
2023-04-02T12:58:38.558Z,39.45
2023-04-02T13:01:18.778Z,38.66
2023-04-02T13:04:03.515Z,38.36
2023-04-02T13:06:32.225Z,39.38
2023-04-02T13:09:02.633Z,39.14
2023-04-02T13:11:41.234Z,40.76
2023-04-02T13:14:19.937Z,41.41
2023-04-02T13:16:49.014Z,41.09
2023-04-02T13:19:30.874Z,41.78
2023-04-02T13:22:01.297Z,40.83
2023-04-02T13:24:31.999Z,41.64
2023-04-02T13:27:02.152Z,42.71
2023-04-02T13:29:34.732Z,42.78
2023-04-02T13:32:05.660Z,44.41
2023-04-02T13:34:35.467Z,47.45
2023-04-02T13:37:03.770Z,48.57
2023-04-02T13:39:32.166Z,48.91
2023-04-02T13:42:03.317Z,50.15
2023-04-02T13:44:33.968Z,48.69
2023-04-02T13:47:02.752Z,47.89
2023-04-02T13:49:34.260Z,48.50
2023-04-02T13:52:05.475Z,48.67
2023-04-02T13:54:41.115Z,46.48
2023-04-02T13:57:10.147Z,45.45
2023-04-02T13:59:39.095Z,43.85
2023-04-02T14:02:12.067Z,41.57
2023-04-02T14:04:45.551Z,41.16
2023-04-02T14:07:27.100Z,40.51
2023-04-02T14:10:07.841Z,38.29
2023-04-02T14:12:50.315Z,39.74
2023-04-02T14:15:28.710Z,40.16
2023-04-02T14:18:25.631Z,37.30
2023-04-02T14:21:06.180Z,38.81
2023-04-02T14:23:50.146Z,37.17
2023-04-02T14:26:28.076Z,36.56
2023-04-02T14:29:02.006Z,36.47
2023-04-02T14:31:36.349Z,37.66
2023-04-02T14:34:16.063Z,36.99
2023-04-02T14:36:57.735Z,37.82
2023-04-02T14:39:40.754Z,41.18
2023-04-02T14:42:17.673Z,39.56
2023-04-02T14:44:53.861Z,40.50
2023-04-02T14:47:28.305Z,41.10
2023-04-02T14:50:03.968Z,41.06
2023-04-02T14:52:37.303Z,42.98
2023-04-02T14:55:11.799Z,43.14
2023-04-02T14:57:49.072Z,43.22
2023-04-02T15:00:30.538Z,41.57
2023-04-02T15:03:06.774Z,41.70
2023-04-02T15:05:43.588Z,42.03
2023-04-02T15:08:22.049Z,44.01
2023-04-02T15:11:03.593Z,42.75
2023-04-02T15:13:40.076Z,41.83
2023-04-02T15:16:15.018Z,44.89
2023-04-02T15:18:43.523Z,44.15
2023-04-02T15:21:49.709Z,45.06
2023-04-02T15:24:28.965Z,44.49
2023-04-02T15:27:18.083Z,44.32
2023-04-02T15:29:59.057Z,45.63
2023-04-02T15:32:38.126Z,45.35
2023-04-02T15:35:28.250Z,48.89
2023-04-02T15:38:07.174Z,45.60
2023-04-02T15:40:55.440Z,46.63
2023-04-02T15:43:31.964Z,48.96
2023-04-02T15:46:21.044Z,45.94
2023-04-02T15:49:23.896Z,47.92
2023-04-02T15:52:06.282Z,46.16
2023-04-02T15:55:03.346Z,48.13
2023-04-02T15:58:12.158Z,47.13
2023-04-02T16:00:43.885Z,46.66
2023-04-02T16:03:30.025Z,46.40
2023-04-02T16:06:18.287Z,46.92
2023-04-02T16:09:02.454Z,46.35
2023-04-02T16:11:32.319Z,47.29
2023-04-02T16:14:18.064Z,47.03
2023-04-02T16:16:50.605Z,47.80
2023-04-02T16:19:31.010Z,47.70
2023-04-02T16:22:07.394Z,48.17
2023-04-02T16:24:37.336Z,48.75
2023-04-02T16:27:20.180Z,48.68
2023-04-02T16:30:03.290Z,49.25
2023-04-02T16:32:51.519Z,48.36
2023-04-02T16:35:42.775Z,49.29
2023-04-02T16:38:24.046Z,48.40
2023-04-02T16:41:08.408Z,49.75
2023-04-02T16:43:47.770Z,50.24
2023-04-02T16:49:11.667Z,49.33
2023-04-02T16:51:48.080Z,50.50
2023-04-02T16:54:25.216Z,50.71
2023-04-02T16:57:10.475Z,50.34
2023-04-02T16:59:51.365Z,50.61
2023-04-02T17:02:33.427Z,51.22
2023-04-02T17:05:18.499Z,51.51
2023-04-02T17:07:53.715Z,52.30
2023-04-02T17:10:31.157Z,51.41
2023-04-02T17:13:14.731Z,51.96
2023-04-02T17:15:53.583Z,52.16
2023-04-02T17:18:27.693Z,52.09
2023-04-02T17:21:04.082Z,52.76
2023-04-02T17:23:46.248Z,53.49
2023-04-02T17:26:28.880Z,53.04
2023-04-02T17:29:01.522Z,52.08
2023-04-02T17:31:37.861Z,51.73
2023-04-02T17:34:16.272Z,52.90
2023-04-02T17:36:53.684Z,52.71
2023-04-02T17:39:32.715Z,52.66
2023-04-02T17:42:11.895Z,52.78
2023-04-02T17:44:56.332Z,53.73
2023-04-02T17:47:35.694Z,53.77
2023-04-02T17:50:38.203Z,54.47
2023-04-02T17:53:21.245Z,54.37
2023-04-02T17:56:01.666Z,54.65
2023-04-02T17:58:51.111Z,54.12
2023-04-02T18:01:30.422Z,54.82
2023-04-02T18:04:12.253Z,54.60
2023-04-02T18:06:52.133Z,53.66
2023-04-02T18:09:39.513Z,53.50
2023-04-02T18:12:24.741Z,53.92
2023-04-02T18:15:06.641Z,53.81
2023-04-02T18:17:47.392Z,53.90
2023-04-02T18:20:32.931Z,53.39
2023-04-02T18:23:13.860Z,53.75
2023-04-02T18:26:06.456Z,53.66
2023-04-02T18:28:48.004Z,53.93
2023-04-02T18:31:26.798Z,53.87
2023-04-02T18:34:20.356Z,52.70
2023-04-02T18:37:02.997Z,52.57
2023-04-02T18:39:47.144Z,52.41
2023-04-02T18:42:25.873Z,52.68
2023-04-02T18:45:06.131Z,54.20
2023-04-02T18:47:43.162Z,53.29
2023-04-02T18:50:19.720Z,52.69
2023-04-02T18:52:53.334Z,53.84
2023-04-02T18:55:30.030Z,53.47
2023-04-02T18:58:06.331Z,53.22
2023-04-02T19:00:41.448Z,53.30
2023-04-02T19:03:21.369Z,53.84
2023-04-02T19:05:56.254Z,54.09
2023-04-02T19:08:33.129Z,54.58
2023-04-02T19:11:12.917Z,54.98
2023-04-02T19:13:50.179Z,55.04
2023-04-02T19:16:52.840Z,56.03
2023-04-02T19:19:24.469Z,56.42
2023-04-02T19:22:10.982Z,57.60
2023-04-02T19:24:58.561Z,57.43
2023-04-02T19:27:39.478Z,57.10
2023-04-02T19:30:32.819Z,57.26
2023-04-02T19:33:14.556Z,57.68
2023-04-02T19:35:50.327Z,57.62
2023-04-02T19:38:36.122Z,57.42
2023-04-02T19:41:15.490Z,56.99
2023-04-02T19:43:47.832Z,56.81
2023-04-02T19:46:19.923Z,56.28
2023-04-02T19:48:58.597Z,56.01
2023-04-02T19:51:38.294Z,55.91
2023-04-02T19:54:09.271Z,56.56
2023-04-02T19:56:41.104Z,56.53
2023-04-02T20:01:47.166Z,57.69
2023-04-02T20:04:17.592Z,58.30
2023-04-02T20:06:49.599Z,58.32
2023-04-02T20:09:19.731Z,57.76
2023-04-02T20:11:50.098Z,58.20
2023-04-02T20:14:24.538Z,57.96
2023-04-02T20:16:57.199Z,58.13
2023-04-02T20:19:27.521Z,57.91
2023-04-02T20:21:57.957Z,58.47
2023-04-02T20:24:28.949Z,58.89
2023-04-02T20:26:57.894Z,59.69
2023-04-02T20:29:30.865Z,59.61
2023-04-02T20:32:00.006Z,59.22
2023-04-02T20:34:29.544Z,60.00
2023-04-02T20:36:58.872Z,59.06
2023-04-02T20:39:29.207Z,60.78
2023-04-02T20:42:02.869Z,60.22
2023-04-02T20:44:33.445Z,60.49
2023-04-02T20:47:02.216Z,60.16
2023-04-02T20:49:31.024Z,60.45
2023-04-02T20:51:59.439Z,66.64
2023-04-02T20:54:28.142Z,70.59
2023-04-02T20:56:57.012Z,71.70
2023-04-02T20:59:26.204Z,73.25
2023-04-02T21:01:56.360Z,74.96
2023-04-02T21:04:24.841Z,76.61
2023-04-02T21:06:57.123Z,78.23
2023-04-02T21:09:25.563Z,78.21
2023-04-02T21:11:53.862Z,80.84
2023-04-02T21:14:22.146Z,82.02
2023-04-02T21:16:50.479Z,82.36
2023-04-02T21:19:20.184Z,83.49
2023-04-02T21:21:48.434Z,83.48
2023-04-02T21:24:17.131Z,83.12
2023-04-02T21:26:46.575Z,82.97
2023-04-02T21:29:14.880Z,80.69
2023-04-02T21:31:43.627Z,79.15
2023-04-02T21:34:15.717Z,78.15
2023-04-02T21:36:46.977Z,76.29
2023-04-02T21:39:19.194Z,74.52
2023-04-02T21:41:50.097Z,72.79
2023-04-02T21:44:22.034Z,72.37
2023-04-02T21:46:52.973Z,72.64
2023-04-02T21:49:23.290Z,71.33
2023-04-02T21:51:53.481Z,71.47
2023-04-02T21:54:22.033Z,70.74
2023-04-02T21:56:50.538Z,71.38
2023-04-02T21:59:19.798Z,70.67
2023-04-02T22:01:49.997Z,70.38
2023-04-02T22:04:20.190Z,70.29
2023-04-02T22:06:48.810Z,70.10
2023-04-02T22:09:21.251Z,70.85
2023-04-02T22:11:51.341Z,69.87
2023-04-02T22:14:19.734Z,69.83
2023-04-02T22:16:48.259Z,69.82
2023-04-02T22:19:17.900Z,68.73
2023-04-02T22:21:47.695Z,69.29
2023-04-02T22:24:22.079Z,68.20
2023-04-02T22:26:50.711Z,68.85
2023-04-02T22:29:19.030Z,69.24
2023-04-02T22:31:47.599Z,68.18
2023-04-02T22:34:16.025Z,67.36
2023-04-02T22:36:44.297Z,68.29
2023-04-02T22:39:13.471Z,66.79
2023-04-02T22:41:43.477Z,67.11
2023-04-02T22:44:15.538Z,67.57
2023-04-02T22:46:43.925Z,66.87
2023-04-02T22:49:12.519Z,65.47
2023-04-02T22:51:40.997Z,65.23
2023-04-02T22:54:09.275Z,65.63
2023-04-02T22:56:37.717Z,65.32
2023-04-02T22:59:07.415Z,64.59
2023-04-02T23:01:37.066Z,63.82
2023-04-02T23:04:06.117Z,64.54
2023-04-02T23:06:34.539Z,63.94
2023-04-02T23:09:02.812Z,64.20
2023-04-02T23:11:30.972Z,63.25
2023-04-02T23:13:59.533Z,63.90
2023-04-02T23:16:30.605Z,63.42
2023-04-02T23:18:58.933Z,63.43
2023-04-02T23:21:28.026Z,63.74
2023-04-02T23:23:56.974Z,63.12
2023-04-02T23:26:29.444Z,62.59
2023-04-02T23:28:58.422Z,63.43
2023-04-02T23:31:28.466Z,62.48
2023-04-02T23:33:56.786Z,62.50
2023-04-02T23:36:26.781Z,62.66
2023-04-02T23:38:56.529Z,62.40
2023-04-02T23:41:26.962Z,62.41
2023-04-02T23:43:56.339Z,62.48
2023-04-02T23:46:25.727Z,61.85
2023-04-02T23:48:56.376Z,62.61
2023-04-02T23:51:25.619Z,62.29
2023-04-02T23:53:55.452Z,61.90
2023-04-02T23:56:24.555Z,62.67
2023-04-02T23:58:53.242Z,62.89
